Time;durP1;ratioP1;P1;durP2;ratioP2;P2;SDS_P1;SDS_P2;PMS_P1;PMS_P2;Temp;Humidity;BMP_temperature;BMP_pressure;BME280_temperature;BME280_humidity;BME280_pressure;Samples;Min_cycle;Max_cycle;Signal;HPM_P1;HPM_P2
2021/06/22 00:01:06;;;;;;;17.40;9.20;;;;;;;21.20;37.08;101209.16;4407295;32;20433;-74
2021/06/22 00:03:32;;;;;;;16.27;8.68;;;;;;;21.27;37.16;101212.34;4409333;32;20030;-75
2021/06/22 00:05:58;;;;;;;16.15;8.73;;;;;;;21.14;37.10;101211.16;4407646;32;20484;-74
2021/06/22 00:08:24;;;;;;;15.95;8.05;;;;;;;21.13;37.13;101218.16;4410879;32;20152;-73
2021/06/22 00:10:49;;;;;;;19.48;9.00;;;;;;;21.25;36.93;101214.16;4407731;32;20466;-75
2021/06/22 00:13:15;;;;;;;15.75;8.38;;;;;;;21.06;37.23;101213.66;4406761;32;20070;-73
2021/06/22 00:15:41;;;;;;;17.98;8.65;;;;;;;21.15;36.95;101210.66;4408970;32;20111;-75
2021/06/22 00:18:07;;;;;;;17.42;8.88;;;;;;;21.22;36.94;101212.28;4407164;32;20105;-76
2021/06/22 00:20:32;;;;;;;16.83;8.30;;;;;;;21.05;37.18;101202.72;4407412;32;20085;-75
2021/06/22 00:22:58;;;;;;;15.18;8.68;;;;;;;21.06;37.09;101207.94;4410966;32;20104;-75
2021/06/22 00:25:25;;;;;;;16.80;8.98;;;;;;;21.11;37.02;101206.44;4410340;32;20486;-74
2021/06/22 00:27:52;;;;;;;16.90;9.40;;;;;;;20.92;37.44;101216.53;4406891;32;20095;-76
2021/06/22 00:30:19;;;;;;;15.73;8.65;;;;;;;20.82;37.69;101212.22;4406290;32;20152;-74
2021/06/22 00:32:45;;;;;;;21.30;9.50;;;;;;;20.84;37.63;101221.91;4406502;32;20457;-75
2021/06/22 00:35:12;;;;;;;20.58;9.43;;;;;;;21.28;36.77;101219.66;4409882;32;20422;-75
2021/06/22 00:37:39;;;;;;;18.73;9.10;;;;;;;20.72;37.56;101219.34;4409052;32;20424;-74
2021/06/22 00:40:06;;;;;;;20.80;9.40;;;;;;;20.81;37.62;101225.75;4409664;32;20073;-74
2021/06/22 00:42:31;;;;;;;18.92;9.40;;;;;;;20.91;37.48;101214.94;4407054;32;20400;-74
2021/06/22 00:44:58;;;;;;;21.37;9.85;;;;;;;20.79;37.50;101218.94;4406921;32;20391;-74
2021/06/22 00:47:26;;;;;;;17.62;9.25;;;;;;;20.77;37.61;101221.53;4410080;32;20441;-73
2021/06/22 00:49:53;;;;;;;14.52;8.90;;;;;;;20.94;37.38;101226.22;4406132;32;20043;-75
2021/06/22 00:52:21;;;;;;;17.75;10.07;;;;;;;21.00;37.22;101224.25;4408630;32;20064;-74
2021/06/22 00:54:47;;;;;;;16.83;9.80;;;;;;;20.95;37.37;101233.53;4413685;32;20030;-75
2021/06/22 00:57:14;;;;;;;18.67;9.90;;;;;;;20.51;38.02;101226.31;4410101;32;20037;-73
2021/06/22 00:59:40;;;;;;;20.65;10.43;;;;;;;20.53;38.03;101226.59;4410507;32;20120;-74
2021/06/22 01:02:06;;;;;;;17.35;9.32;;;;;;;20.31;38.50;101227.00;4403984;32;20066;-74
2021/06/22 01:04:33;;;;;;;18.10;8.65;;;;;;;20.38;38.54;101225.84;4410321;32;20038;-75
2021/06/22 01:07:01;;;;;;;15.73;10.18;;;;;;;20.87;37.56;101220.09;4409060;32;20034;-74
2021/06/22 01:09:29;;;;;;;18.05;10.20;;;;;;;20.68;37.98;101236.72;4408533;32;20062;-74
2021/06/22 01:11:57;;;;;;;21.15;10.55;;;;;;;20.41;38.21;101242.00;4409590;32;20107;-74
2021/06/22 01:14:24;;;;;;;20.52;9.90;;;;;;;20.50;38.28;101239.84;4410564;32;20670;-75
2021/06/22 01:16:50;;;;;;;18.62;10.55;;;;;;;20.50;38.19;101239.03;4410310;32;20025;-74
2021/06/22 01:19:16;;;;;;;21.52;10.60;;;;;;;20.40;38.13;101240.44;4406718;32;20081;-74
2021/06/22 01:21:42;;;;;;;20.20;9.82;;;;;;;20.45;38.18;101240.50;4406422;32;20074;-73
2021/06/22 01:26:50;;;;;;;22.27;10.00;;;;;;;20.72;38.07;101245.91;4426678;31;809277;-73
2021/06/22 01:29:16;;;;;;;20.77;10.90;;;;;;;20.72;38.07;101245.91;4449369;32;20081;-74
2021/06/22 01:31:42;;;;;;;22.83;10.57;;;;;;;20.24;38.67;101252.34;4449804;32;20447;-74
2021/06/22 01:34:09;;;;;;;19.67;9.98;;;;;;;20.20;38.69;101255.41;4451899;32;20082;-73
2021/06/22 01:36:36;;;;;;;21.00;10.75;;;;;;;20.23;38.79;101260.16;4452167;32;20073;-74
2021/06/22 01:39:04;;;;;;;20.20;10.38;;;;;;;20.17;38.95;101250.69;4448487;32;20065;-74
2021/06/22 01:41:30;;;;;;;18.67;11.02;;;;;;;20.26;38.73;101258.38;4449403;32;20120;-73
2021/06/22 01:43:57;;;;;;;24.10;10.10;;;;;;;20.06;38.84;101256.16;4450138;32;20473;-73
2021/06/22 01:46:23;;;;;;;21.70;10.63;;;;;;;20.41;38.48;101262.81;4453447;32;20473;-73
2021/06/22 01:48:48;;;;;;;18.25;10.05;;;;;;;20.06;38.83;101258.25;4448553;32;20055;-74
2021/06/22 01:51:15;;;;;;;20.92;10.82;;;;;;;20.09;39.04;101263.75;4448631;32;20041;-73
2021/06/22 01:53:40;;;;;;;25.62;11.12;;;;;;;19.87;39.40;101256.81;4450326;32;20086;-74
2021/06/22 01:56:07;;;;;;;20.88;9.95;;;;;;;19.94;39.37;101262.94;4449738;32;20097;-74
2021/06/22 01:58:33;;;;;;;22.37;11.27;;;;;;;19.82;39.48;101255.44;4452954;32;20072;-74
2021/06/22 02:00:59;;;;;;;23.58;11.80;;;;;;;19.91;39.41;101258.22;4445550;32;20098;-73
2021/06/22 02:03:26;;;;;;;18.27;10.98;;;;;;;19.62;40.13;101258.16;4433999;32;20121;-74
2021/06/22 02:05:53;;;;;;;22.25;11.40;;;;;;;19.87;39.71;101251.91;4433497;32;20094;-74
2021/06/22 02:08:19;;;;;;;21.73;11.88;;;;;;;19.96;39.46;101257.53;4434125;32;20029;-74
2021/06/22 02:10:46;;;;;;;23.48;11.60;;;;;;;20.05;39.41;101257.44;4434638;32;20107;-75
2021/06/22 02:13:12;;;;;;;22.33;10.80;;;;;;;19.96;39.72;101266.12;4431406;32;20138;-73
2021/06/22 02:15:39;;;;;;;23.40;11.48;;;;;;;19.92;39.61;101262.66;4434587;32;20041;-74
2021/06/22 02:18:06;;;;;;;23.87;11.25;;;;;;;19.97;39.70;101256.25;4436391;32;20042;-73
2021/06/22 02:20:32;;;;;;;19.62;10.95;;;;;;;19.85;39.79;101256.56;4432715;32;20516;-73
2021/06/22 02:22:58;;;;;;;16.98;10.27;;;;;;;19.78;40.01;101249.12;4434104;32;20041;-74
2021/06/22 02:25:24;;;;;;;25.37;12.37;;;;;;;19.64;40.21;101262.09;4432477;32;20736;-74
2021/06/22 02:27:59;;;;;;;21.87;11.93;;;;;;;19.66;40.19;101261.63;4436554;32;20102;-72
2021/06/22 02:30:25;;;;;;;19.02;11.32;;;;;;;19.52;40.49;101253.81;4430297;32;20097;-74
2021/06/22 02:32:50;;;;;;;22.10;11.55;;;;;;;19.62;40.11;101256.12;4433800;32;20125;-74
2021/06/22 02:35:16;;;;;;;20.45;11.20;;;;;;;19.69;40.20;101252.88;4434574;32;20426;-74
2021/06/22 02:37:43;;;;;;;24.85;12.35;;;;;;;19.65;40.24;101257.19;4427073;32;20357;-74
2021/06/22 02:40:11;;;;;;;23.42;12.63;;;;;;;19.83;40.06;101259.91;4423465;32;20099;-73
2021/06/22 02:42:37;;;;;;;27.80;12.32;;;;;;;19.80;40.12;101260.87;4422873;32;20037;-74
2021/06/22 02:45:03;;;;;;;21.08;11.98;;;;;;;19.85;39.90;101265.88;4423874;32;20411;-74
2021/06/22 02:47:29;;;;;;;25.10;12.88;;;;;;;19.85;39.92;101273.69;4422787;32;20088;-72
2021/06/22 02:49:54;;;;;;;21.75;11.85;;;;;;;19.80;39.89;101263.72;4422056;32;20097;-74
2021/06/22 02:52:20;;;;;;;21.05;11.45;;;;;;;19.75;40.14;101267.25;4424828;32;20097;-73
2021/06/22 02:54:46;;;;;;;24.12;11.93;;;;;;;19.79;39.91;101267.87;4422228;32;20153;-73
2021/06/22 02:57:11;;;;;;;22.58;11.98;;;;;;;19.75;40.15;101253.78;4424397;32;20062;-73
2021/06/22 02:59:38;;;;;;;22.08;10.73;;;;;;;19.86;40.07;101255.25;4422323;32;20034;-74
2021/06/22 03:02:06;;;;;;;23.75;11.82;;;;;;;20.03;39.85;101257.13;4420590;32;20109;-73
2021/06/22 03:04:33;;;;;;;19.77;11.80;;;;;;;20.10;39.62;101256.78;4424413;32;20033;-75
2021/06/22 03:07:00;;;;;;;22.27;11.50;;;;;;;20.14;39.68;101253.72;4420504;32;20049;-74
2021/06/22 03:09:26;;;;;;;25.52;12.55;;;;;;;20.11;39.59;101249.78;4422811;32;20374;-74
2021/06/22 03:11:53;;;;;;;30.58;13.35;;;;;;;20.18;39.09;101251.47;4426926;32;20096;-75
2021/06/22 03:14:20;;;;;;;25.10;12.80;;;;;;;20.43;39.21;101242.31;4424265;32;20097;-73
2021/06/22 03:16:46;;;;;;;20.52;10.98;;;;;;;20.61;38.77;101242.06;4424548;32;20065;-72
2021/06/22 03:19:13;;;;;;;21.15;11.82;;;;;;;20.48;38.42;101250.97;4422435;32;20074;-73
2021/06/22 03:21:42;;;;;;;23.12;12.18;;;;;;;20.35;39.03;101250.50;4421871;32;20135;-73
2021/06/22 03:24:18;;;;;;;23.70;11.88;;;;;;;20.44;38.92;101256.09;4424826;32;20065;-73
2021/06/22 03:26:45;;;;;;;24.27;11.18;;;;;;;20.84;38.10;101249.72;4423858;32;20481;-73
2021/06/22 03:29:12;;;;;;;22.02;12.23;;;;;;;20.65;38.67;101259.81;4422919;32;20092;-73
2021/06/22 03:31:38;;;;;;;20.20;10.90;;;;;;;20.59;38.77;101253.22;4419535;32;20086;-73
2021/06/22 03:34:05;;;;;;;22.92;11.82;;;;;;;20.41;39.11;101259.16;4425164;32;20407;-74
2021/06/22 03:36:31;;;;;;;24.45;10.88;;;;;;;20.54;39.06;101265.34;4421992;32;20082;-74
2021/06/22 03:38:57;;;;;;;23.35;11.48;;;;;;;20.25;39.47;101265.38;4420824;32;20158;-72
2021/06/22 03:41:23;;;;;;;24.33;11.80;;;;;;;20.05;39.72;101268.09;4425281;32;20414;-74
2021/06/22 03:43:49;;;;;;;22.48;11.48;;;;;;;19.67;40.76;101257.50;4424846;32;20304;-73
2021/06/22 03:46:18;;;;;;;22.50;11.40;;;;;;;20.26;39.66;101272.66;4420052;32;20046;-73
2021/06/22 03:48:45;;;;;;;21.45;11.15;;;;;;;20.49;39.27;101266.06;4425021;32;20103;-74
2021/06/22 03:51:10;;;;;;;22.98;10.98;;;;;;;20.56;39.25;101265.66;4424737;32;20069;-74
2021/06/22 03:53:38;;;;;;;20.45;12.32;;;;;;;20.60;38.99;101269.88;4422115;32;20605;-74
2021/06/22 03:56:06;;;;;;;21.48;11.35;;;;;;;20.53;39.23;101276.00;4420417;32;20542;-73
2021/06/22 03:58:32;;;;;;;25.75;11.07;;;;;;;20.59;39.08;101276.88;4421140;32;20050;-74
2021/06/22 04:00:58;;;;;;;22.23;11.45;;;;;;;20.25;39.66;101285.38;4420392;32;20046;-73
2021/06/22 04:03:24;;;;;;;21.25;11.45;;;;;;;20.01;40.15;101285.44;4423338;32;20348;-74
2021/06/22 04:05:50;;;;;;;24.83;12.70;;;;;;;19.98;39.95;101280.72;4424587;32;20104;-73
2021/06/22 04:08:15;;;;;;;27.00;12.48;;;;;;;20.03;39.95;101282.09;4426821;32;20064;-72
2021/06/22 04:10:41;;;;;;;22.83;11.95;;;;;;;19.83;40.65;101292.09;4423805;32;20073;-73
2021/06/22 04:13:07;;;;;;;27.67;11.90;;;;;;;19.88;40.58;101289.84;4421569;32;20057;-73
2021/06/22 04:15:33;;;;;;;22.25;12.13;;;;;;;19.72;40.97;101288.22;4424960;32;20377;-74
2021/06/22 04:18:02;;;;;;;22.30;11.45;;;;;;;19.59;41.13;101276.28;4421733;32;20078;-74
2021/06/22 04:20:28;;;;;;;22.05;10.90;;;;;;;20.03;40.55;101288.56;4423070;32;20707;-76
2021/06/22 04:22:54;;;;;;;25.10;12.40;;;;;;;19.94;40.44;101293.59;4423071;32;20520;-74
2021/06/22 04:25:20;;;;;;;21.05;10.52;;;;;;;19.75;40.94;101298.66;4422430;32;20101;-73
2021/06/22 04:27:46;;;;;;;20.45;10.50;;;;;;;19.82;40.74;101304.00;4421715;32;20064;-73
2021/06/22 04:30:13;;;;;;;24.00;11.02;;;;;;;20.01;40.53;101308.28;4420743;32;20065;-74
2021/06/22 04:32:39;;;;;;;23.33;11.57;;;;;;;20.25;40.09;101299.69;4422486;32;20432;-76
2021/06/22 04:35:05;;;;;;;22.65;10.95;;;;;;;20.10;40.14;101311.06;4424270;32;20045;-73
2021/06/22 04:37:32;;;;;;;22.50;10.68;;;;;;;20.24;40.26;101310.31;4423567;32;20489;-74
2021/06/22 04:39:58;;;;;;;24.58;10.40;;;;;;;20.40;40.00;101309.81;4424025;32;20105;-73
2021/06/22 04:42:24;;;;;;;20.15;11.00;;;;;;;20.17;40.17;101307.06;4423635;32;20397;-75
2021/06/22 04:44:51;;;;;;;26.30;11.23;;;;;;;20.28;39.98;101305.19;4422395;32;20461;-74
2021/06/22 04:47:17;;;;;;;22.75;11.98;;;;;;;20.81;38.99;101308.72;4423113;32;20061;-73
2021/06/22 04:49:43;;;;;;;19.42;10.10;;;;;;;21.07;38.45;101315.37;4422437;32;20140;-74
2021/06/22 04:52:11;;;;;;;20.08;10.55;;;;;;;20.73;39.04;101309.59;4421001;32;20133;-74
2021/06/22 04:54:37;;;;;;;23.52;10.40;;;;;;;20.74;39.06;101322.63;4422629;32;20399;-75
2021/06/22 04:57:05;;;;;;;22.55;10.45;;;;;;;20.78;39.03;101326.06;4420589;32;20199;-74
2021/06/22 04:59:34;;;;;;;18.02;10.20;;;;;;;21.23;38.32;101340.59;4424957;32;20146;-73
2021/06/22 05:02:00;;;;;;;20.58;10.38;;;;;;;21.54;37.84;101329.34;4421615;32;20397;-74
2021/06/22 05:04:25;;;;;;;23.67;10.35;;;;;;;21.23;38.17;101334.13;4421049;32;20465;-75
2021/06/22 05:06:51;;;;;;;17.08;10.10;;;;;;;21.50;37.79;101336.56;4422864;32;20085;-75
2021/06/22 05:09:17;;;;;;;17.77;10.32;;;;;;;21.83;37.10;101333.38;4422807;32;20037;-74
2021/06/22 05:11:42;;;;;;;20.55;9.35;;;;;;;21.56;37.42;101331.69;4424956;32;20113;-74
2021/06/22 05:14:08;;;;;;;15.20;8.85;;;;;;;21.37;37.58;101324.66;4422212;32;20355;-73
2021/06/22 05:16:34;;;;;;;18.05;9.15;;;;;;;21.36;37.67;101337.41;4423213;32;20068;-73
2021/06/22 05:18:59;;;;;;;15.25;9.32;;;;;;;20.89;38.61;101337.72;4422955;32;20440;-74
2021/06/22 05:21:25;;;;;;;16.92;8.63;;;;;;;21.13;38.05;101336.31;4420571;32;20109;-75
2021/06/22 05:23:51;;;;;;;18.77;9.07;;;;;;;21.14;38.19;101342.81;4421115;32;20060;-73
2021/06/22 05:26:16;;;;;;;14.57;8.57;;;;;;;21.13;38.42;101342.03;4418648;32;20462;-74
2021/06/22 05:28:42;;;;;;;19.83;9.40;;;;;;;21.54;37.72;101337.16;4420324;32;20073;-75
2021/06/22 05:31:07;;;;;;;20.65;9.32;;;;;;;21.23;38.26;101346.34;4419028;32;20093;-74
2021/06/22 05:33:33;;;;;;;17.90;9.57;;;;;;;21.36;38.03;101335.31;4422929;32;20049;-75
2021/06/22 05:35:59;;;;;;;20.52;9.63;;;;;;;21.20;38.41;101352.28;4425391;32;20042;-74
2021/06/22 05:38:24;;;;;;;17.85;9.25;;;;;;;21.44;37.84;101342.22;4422206;32;20101;-74
2021/06/22 05:40:50;;;;;;;18.25;10.80;;;;;;;21.32;38.12;101349.06;4422528;32;20130;-74
2021/06/22 05:43:16;;;;;;;19.17;9.93;;;;;;;21.62;37.55;101352.59;4420878;32;20086;-75
2021/06/22 05:45:41;;;;;;;21.45;9.73;;;;;;;21.30;38.18;101353.72;4423030;32;20409;-75
2021/06/22 05:48:07;;;;;;;19.08;9.50;;;;;;;21.48;37.82;101345.66;4420447;32;20042;-74
2021/06/22 05:50:33;;;;;;;15.60;8.93;;;;;;;21.93;37.15;101352.00;4417284;32;20060;-74
2021/06/22 05:52:58;;;;;;;16.58;8.55;;;;;;;21.73;37.61;101352.78;4421156;32;20443;-75
2021/06/22 05:55:24;;;;;;;20.15;8.50;;;;;;;21.70;37.75;101343.06;4421562;32;20073;-74
2021/06/22 05:57:52;;;;;;;14.45;7.78;;;;;;;21.81;37.58;101348.19;4421428;32;20534;-75
2021/06/22 06:00:22;;;;;;;16.42;8.15;;;;;;;21.90;37.42;101350.16;4418669;32;20486;-75
2021/06/22 06:02:49;;;;;;;15.00;7.85;;;;;;;21.88;37.79;101341.25;4420659;32;20077;-74
2021/06/22 06:05:16;;;;;;;15.77;7.72;;;;;;;21.70;38.07;101345.19;4421269;32;20081;-75
2021/06/22 06:07:43;;;;;;;18.52;7.75;;;;;;;21.82;37.79;101341.19;4422145;32;20421;-74
2021/06/22 06:10:10;;;;;;;14.68;7.93;;;;;;;21.51;38.46;101347.53;4421504;32;20122;-75
2021/06/22 06:12:36;;;;;;;15.82;7.57;;;;;;;21.77;38.00;101353.38;4420513;32;20470;-75
2021/06/22 06:15:04;;;;;;;14.35;8.57;;;;;;;21.73;38.01;101349.09;4424591;32;20069;-74
2021/06/22 06:17:30;;;;;;;18.83;8.98;;;;;;;22.03;37.71;101350.56;4422689;32;20112;-74
2021/06/22 06:19:56;;;;;;;18.80;9.45;;;;;;;21.87;37.78;101346.19;4425197;32;20394;-74
2021/06/22 06:22:21;;;;;;;19.58;8.65;;;;;;;22.03;37.53;101354.19;4421234;32;20446;-74
2021/06/22 06:24:47;;;;;;;20.73;9.60;;;;;;;22.07;37.29;101351.91;4422141;32;20472;-75
2021/06/22 06:27:19;;;;;;;22.92;8.48;;;;;;;22.09;37.31;101352.19;4426497;32;20033;-75
2021/06/22 06:29:54;;;;;;;15.73;7.95;;;;;;;22.07;37.34;101351.13;4422331;32;20046;-75
2021/06/22 06:32:20;;;;;;;18.20;9.00;;;;;;;22.37;36.69;101352.50;4423845;32;20089;-74
2021/06/22 06:34:45;;;;;;;16.05;8.88;;;;;;;22.12;36.94;101348.31;4419134;32;20450;-74
2021/06/22 06:37:11;;;;;;;17.90;8.73;;;;;;;22.28;36.68;101349.81;4420111;32;20089;-74
2021/06/22 06:39:37;;;;;;;19.10;9.18;;;;;;;22.41;36.42;101353.06;4422522;32;20064;-75
2021/06/22 06:42:03;;;;;;;16.65;8.65;;;;;;;22.72;36.01;101344.53;4421187;32;20124;-74
2021/06/22 06:44:30;;;;;;;12.95;8.20;;;;;;;21.88;37.07;101342.06;4420508;32;21212;-74
2021/06/22 06:46:55;;;;;;;15.60;8.73;;;;;;;22.67;36.18;101353.88;4422704;32;20084;-74
2021/06/22 06:49:22;;;;;;;18.75;9.13;;;;;;;22.46;36.23;101353.09;4413472;32;20085;-73
2021/06/22 06:51:48;;;;;;;18.15;8.13;;;;;;;22.95;35.69;101355.69;4419787;32;20120;-73
2021/06/22 06:54:13;;;;;;;17.62;9.32;;;;;;;22.89;35.68;101359.81;4417642;32;20572;-73
2021/06/22 06:56:39;;;;;;;14.68;8.43;;;;;;;23.29;35.08;101357.53;4422461;32;20189;-73
2021/06/22 06:59:05;;;;;;;15.57;7.30;;;;;;;23.38;34.91;101362.31;4417893;32;20509;-72
2021/06/22 07:01:31;;;;;;;15.00;8.13;;;;;;;23.85;34.22;101360.72;4417032;32;20401;-74
2021/06/22 07:03:59;;;;;;;17.05;8.50;;;;;;;23.75;33.98;101363.03;4410632;32;20112;-73
2021/06/22 07:06:25;;;;;;;15.60;8.52;;;;;;;24.10;33.79;101374.16;4418698;32;20100;-74
2021/06/22 07:08:51;;;;;;;16.17;8.70;;;;;;;24.18;33.27;101376.03;4410892;32;20097;-73
2021/06/22 07:11:21;;;;;;;16.00;8.50;;;;;;;24.55;32.84;101381.63;4412220;32;20041;-74
2021/06/22 07:13:48;;;;;;;12.00;7.22;;;;;;;24.57;32.57;101391.31;4413811;32;20127;-73
2021/06/22 07:16:15;;;;;;;16.52;7.50;;;;;;;24.93;32.16;101386.66;4414725;32;20111;-74
2021/06/22 07:18:41;;;;;;;17.08;8.32;;;;;;;24.20;33.10;101387.81;4416375;32;20496;-73
2021/06/22 07:21:07;;;;;;;12.10;7.18;;;;;;;24.20;33.11;101375.53;4414842;32;20061;-73
2021/06/22 07:23:33;;;;;;;13.65;6.95;;;;;;;24.64;32.55;101385.06;4411872;32;20054;-72
2021/06/22 07:26:00;;;;;;;12.68;7.50;;;;;;;24.28;32.88;101390.97;4415803;32;20053;-74
2021/06/22 07:28:25;;;;;;;14.32;8.23;;;;;;;24.49;32.64;101386.56;4417518;32;20213;-74
2021/06/22 07:30:51;;;;;;;16.90;8.18;;;;;;;24.74;32.35;101395.03;4412210;32;20699;-75
2021/06/22 07:33:17;;;;;;;16.67;7.70;;;;;;;24.48;32.89;101400.16;4417813;32;20073;-77
2021/06/22 07:35:44;;;;;;;18.77;8.73;;;;;;;24.88;32.33;101408.38;4413678;32;20478;-74
2021/06/22 07:38:09;;;;;;;16.62;7.65;;;;;;;24.41;33.13;101400.69;4415655;32;20136;-75
2021/06/22 07:40:36;;;;;;;13.45;7.62;;;;;;;24.65;32.60;101403.13;4413162;32;20421;-75
2021/06/22 07:43:01;;;;;;;15.00;8.35;;;;;;;25.02;31.79;101416.00;4418623;32;20046;-76
2021/06/22 07:45:27;;;;;;;16.48;8.00;;;;;;;25.37;30.99;101415.47;4414963;32;20037;-74
2021/06/22 07:47:55;;;;;;;11.15;6.53;;;;;;;25.72;30.74;101412.81;4413890;32;20061;-77
2021/06/22 07:50:21;;;;;;;15.40;7.00;;;;;;;26.01;30.08;101405.66;4414694;32;20649;-73
2021/06/22 07:52:47;;;;;;;10.35;6.62;;;;;;;26.18;30.19;101412.13;4414099;32;20161;-71
2021/06/22 07:55:14;;;;;;;16.05;7.25;;;;;;;25.81;30.44;101420.37;4412291;32;20520;-72
2021/06/22 07:57:42;;;;;;;14.52;6.87;;;;;;;25.62;30.68;101408.62;4413512;32;20037;-73
2021/06/22 08:00:26;;;;;;;9.63;6.15;;;;;;;26.35;29.76;101409.97;4414686;32;20092;-73
2021/06/22 08:02:53;;;;;;;9.95;5.18;;;;;;;26.81;29.28;101409.94;4416429;32;20042;-74
2021/06/22 08:05:19;;;;;;;12.63;5.80;;;;;;;26.42;29.65;101418.81;4412965;32;20112;-73
2021/06/22 08:07:44;;;;;;;13.68;6.18;;;;;;;26.78;29.07;101411.81;4416566;32;20057;-72
2021/06/22 08:10:11;;;;;;;8.60;5.15;;;;;;;27.25;28.48;101418.31;4413965;32;20241;-71
2021/06/22 08:12:36;;;;;;;12.48;5.45;;;;;;;27.98;27.90;101422.81;4414768;32;20076;-73
2021/06/22 08:15:03;;;;;;;14.63;5.55;;;;;;;28.12;27.29;101423.72;4414947;32;20077;-73
2021/06/22 08:17:28;;;;;;;13.60;6.65;;;;;;;28.31;27.12;101424.50;4416960;32;20469;-74
2021/06/22 08:19:54;;;;;;;13.95;5.65;;;;;;;27.59;27.85;101433.22;4415036;32;20132;-76
2021/06/22 08:22:19;;;;;;;15.75;5.50;;;;;;;27.93;27.53;101431.56;4412922;32;20752;-77
2021/06/22 08:24:48;;;;;;;11.12;4.43;;;;;;;27.73;27.88;101434.94;4414730;32;20682;-77
2021/06/22 08:27:14;;;;;;;8.25;3.83;;;;;;;27.20;28.33;101439.34;4414602;32;20151;-78
2021/06/22 08:29:40;;;;;;;12.50;4.40;;;;;;;27.37;28.06;101442.91;4416987;32;20373;-73
2021/06/22 08:32:06;;;;;;;13.68;4.40;;;;;;;27.28;28.04;101437.47;4412511;32;20094;-73
2021/06/22 08:34:33;;;;;;;11.98;4.20;;;;;;;27.31;28.19;101441.38;4412634;32;20073;-72
2021/06/22 08:36:59;;;;;;;11.18;4.60;;;;;;;27.40;27.96;101444.72;4416242;32;20120;-73
2021/06/22 08:39:24;;;;;;;11.60;4.30;;;;;;;27.45;27.91;101434.44;4413806;32;20041;-73
2021/06/22 08:41:53;;;;;;;9.77;4.12;;;;;;;26.35;29.14;101439.59;4416212;32;20085;-72
2021/06/22 08:44:19;;;;;;;12.37;4.37;;;;;;;27.70;27.76;101441.81;4415345;32;20108;-72
2021/06/22 08:46:46;;;;;;;11.45;4.32;;;;;;;27.48;28.29;101433.34;4415027;32;20503;-72
2021/06/22 08:49:13;;;;;;;12.93;5.10;;;;;;;27.83;28.05;101430.34;4413124;32;20101;-72
2021/06/22 08:51:41;;;;;;;9.60;3.92;;;;;;;28.27;27.02;101432.72;4413803;32;20112;-73
2021/06/22 08:54:08;;;;;;;8.05;3.33;;;;;;;28.11;26.92;101437.41;4411894;32;20089;-73
2021/06/22 08:56:35;;;;;;;13.52;3.67;;;;;;;27.64;27.39;101430.28;4416543;32;20111;-73
2021/06/22 08:59:02;;;;;;;8.48;2.87;;;;;;;27.84;26.67;101423.22;4416542;32;20077;-72
2021/06/22 09:01:28;;;;;;;9.68;3.10;;;;;;;28.30;26.03;101420.84;4414390;32;20434;-72
2021/06/22 09:03:54;;;;;;;13.80;3.80;;;;;;;30.36;23.72;101428.41;4414525;32;20085;-72
2021/06/22 09:06:24;;;;;;;9.80;3.67;;;;;;;30.95;23.09;101430.50;4416265;32;21092;-74
2021/06/22 09:08:52;;;;;;;6.43;3.00;;;;;;;31.41;22.89;101423.81;4411741;32;20156;-72
2021/06/22 09:11:19;;;;;;;4.85;2.50;;;;;;;30.25;22.98;101437.37;4412799;32;20451;-74
2021/06/22 09:13:57;;;;;;;10.77;3.62;;;;;;;29.93;23.35;101443.25;4417301;32;20378;-72
2021/06/22 09:16:23;;;;;;;11.85;3.50;;;;;;;30.47;23.00;101434.75;4415973;32;20079;-73
2021/06/22 09:18:49;;;;;;;12.20;2.95;;;;;;;30.04;23.26;101433.56;4414766;32;20081;-72
2021/06/22 09:23:54;;;;;;;14.00;3.00;;;;;;;31.50;21.83;101434.94;4429507;31;664826;-73
2021/06/22 09:29:14;;;;;;;10.23;3.45;;;;;;;31.64;21.16;101427.69;4427360;31;691020;-74
2021/06/22 09:34:26;;;;;;;4.87;2.42;;;;;;;32.63;20.07;101436.47;4433713;31;679176;-74
2021/06/22 09:36:55;;;;;;;7.87;2.45;;;;;;;32.63;20.07;101436.47;4448332;32;20044;-76
2021/06/22 09:39:23;;;;;;;9.50;2.53;;;;;;;32.08;19.54;101440.22;4443225;32;20115;-74
2021/06/22 09:41:51;;;;;;;8.20;2.60;;;;;;;33.32;18.98;101438.22;4440110;32;20119;-75
2021/06/22 09:44:22;;;;;;;10.73;3.00;;;;;;;33.65;17.88;101436.31;4446618;32;20067;-75
2021/06/22 09:52:04;;;;;;;4.53;2.50;;;;;;;33.36;19.04;101446.56;4420763;31;724717;-74
2021/06/22 09:54:33;;;;;;;9.00;3.03;;;;;;;33.36;19.04;101446.56;4433345;32;20045;-76
2021/06/22 10:02:24;;;;;;;7.15;3.10;;;;;;;31.97;20.19;101435.50;4411217;31;686485;-72
2021/06/22 10:04:52;;;;;;;8.35;3.20;;;;;;;31.97;20.19;101435.50;4433974;32;20083;-74
2021/06/22 10:07:23;;;;;;;8.90;3.75;;;;;;;31.48;20.06;101439.78;4429817;32;20522;-73
2021/06/22 10:10:02;;;;;;;11.43;4.62;;;;;;;31.84;20.18;101441.44;4428756;32;20041;-73
2021/06/22 10:12:30;;;;;;;6.72;2.45;;;;;;;31.36;20.80;101442.19;4429017;32;20337;-73
2021/06/22 10:15:00;;;;;;;9.80;3.90;;;;;;;31.59;20.62;101446.06;4428006;32;20138;-72
2021/06/22 10:17:29;;;;;;;6.70;3.20;;;;;;;31.82;20.35;101444.16;4432095;32;20104;-72
2021/06/22 10:19:58;;;;;;;7.15;2.78;;;;;;;31.93;20.00;101440.91;4430741;32;20134;-73
2021/06/22 10:22:31;;;;;;;4.25;2.40;;;;;;;32.19;19.01;101442.84;4430002;32;20091;-73
2021/06/22 10:24:59;;;;;;;8.95;2.62;;;;;;;31.20;19.42;101434.63;4432025;32;20731;-77
2021/06/22 10:27:25;;;;;;;5.37;2.72;;;;;;;31.54;19.81;101422.94;4429689;32;20187;-73
2021/06/22 10:29:54;;;;;;;5.75;2.65;;;;;;;32.88;18.27;101425.09;4432820;32;20041;-74
2021/06/22 10:32:23;;;;;;;3.95;2.30;;;;;;;34.08;16.20;101430.25;4432853;32;20049;-75
2021/06/22 10:34:54;;;;;;;4.43;2.20;;;;;;;34.56;15.79;101431.03;4428614;32;20445;-74
2021/06/22 10:40:23;;;;;;;8.13;2.28;;;;;;;34.19;16.42;101426.87;4421725;32;679708;-73
2021/06/22 10:42:52;;;;;;;4.87;2.30;;;;;;;34.19;16.42;101426.87;4430555;32;20105;-74
2021/06/22 10:45:19;;;;;;;5.65;2.05;;;;;;;34.22;16.71;101426.50;4430773;32;20104;-73
2021/06/22 10:47:46;;;;;;;6.40;2.45;;;;;;;33.23;17.29;101423.41;4430831;32;20053;-73
2021/06/22 11:06:20;;;;;;;7.95;3.10;;;;;;;33.31;18.63;101438.81;4416288;32;678150;-78
2021/06/22 11:08:46;;;;;;;8.10;3.58;;;;;;;33.31;18.63;101438.81;4434695;32;20794;-77
2021/06/22 11:13:54;;;;;;;6.80;3.93;;;;;;;31.77;20.31;101421.78;4399815;32;1378621;-77
2021/06/22 11:21:51;;;;;;;9.98;4.55;;;;;;;32.57;19.35;101435.88;4419828;32;703879;-78
2021/06/22 11:27:02;;;;;;;6.97;3.50;;;;;;;32.72;18.36;101434.34;4422832;31;697617;-74
2021/06/22 11:32:07;;;;;;;7.05;3.30;;;;;;;33.63;18.17;101431.06;4434406;31;671045;-75
2021/06/22 11:34:35;;;;;;;6.62;3.78;;;;;;;33.63;18.17;101431.06;4448089;32;20083;-75
2021/06/22 11:40:01;;;;;;;6.35;3.70;;;;;;;36.35;15.71;101430.28;4433511;31;671287;-75
2021/06/22 11:42:27;;;;;;;8.25;4.22;;;;;;;36.35;15.71;101430.28;4450522;32;20087;-74
2021/06/22 11:47:50;;;;;;;8.90;3.72;;;;;;;34.40;17.15;101415.72;4422040;31;668502;-77
2021/06/22 11:50:22;;;;;;;9.27;4.07;;;;;;;34.40;17.15;101415.72;4445581;32;20423;-74
2021/06/22 11:52:50;;;;;;;7.15;3.90;;;;;;;34.45;17.21;101413.97;4443491;32;20071;-76
2021/06/22 11:55:19;;;;;;;11.25;4.30;;;;;;;33.43;18.21;101416.63;4444757;32;20050;-75
2021/06/22 11:57:47;;;;;;;10.02;4.05;;;;;;;33.25;18.59;101421.47;4442990;32;20088;-74
2021/06/22 12:00:17;;;;;;;7.75;3.97;;;;;;;33.33;18.49;101421.47;4440860;32;20104;-73
2021/06/22 12:02:52;;;;;;;7.93;4.15;;;;;;;33.42;18.18;101420.94;4428917;32;20268;-75
2021/06/22 12:05:19;;;;;;;11.52;3.90;;;;;;;31.35;19.85;101419.50;4426867;32;20096;-75
2021/06/22 12:07:48;;;;;;;7.72;4.25;;;;;;;33.12;18.64;101412.13;4431688;32;20081;-76
2021/06/22 12:10:14;;;;;;;10.05;4.25;;;;;;;32.93;18.82;101417.53;4432068;32;20112;-76
2021/06/22 12:12:43;;;;;;;10.20;4.45;;;;;;;32.85;19.04;101410.88;4431898;32;20489;-75